sensor_id;sensor_type;location;lat;lon;timestamp;pressure;altitude;pressure_sealevel;temperature;humidity
65010;BME280;51556;50.002;22.014;2022-08-19T00:02:24;98887.33;;;21.28;68.27
65010;BME280;51556;50.002;22.014;2022-08-19T00:04:50;98882.54;;;21.22;68.41
65010;BME280;51556;50.002;22.014;2022-08-19T00:07:21;98875.48;;;21.14;68.51
65010;BME280;51556;50.002;22.014;2022-08-19T00:09:46;98873.11;;;21.08;68.73
65010;BME280;51556;50.002;22.014;2022-08-19T00:12:13;98872.89;;;21.01;69.08
65010;BME280;51556;50.002;22.014;2022-08-19T00:14:39;98874.42;;;20.98;69.29
65010;BME280;51556;50.002;22.014;2022-08-19T00:17:07;98874.47;;;20.99;69.80
65010;BME280;51556;50.002;22.014;2022-08-19T00:19:34;98870.77;;;21.04;70.06
65010;BME280;51556;50.002;22.014;2022-08-19T00:22:00;98879.77;;;21.07;70.19
65010;BME280;51556;50.002;22.014;2022-08-19T00:24:27;98876.14;;;21.11;70.35
65010;BME280;51556;50.002;22.014;2022-08-19T00:26:54;98879.32;;;21.14;70.28
65010;BME280;51556;50.002;22.014;2022-08-19T00:29:23;98876.07;;;21.14;70.56
65010;BME280;51556;50.002;22.014;2022-08-19T00:31:50;98882.33;;;21.09;70.56
65010;BME280;51556;50.002;22.014;2022-08-19T00:34:20;98878.77;;;21.04;70.74
65010;BME280;51556;50.002;22.014;2022-08-19T00:36:47;98873.59;;;20.97;70.51
65010;BME280;51556;50.002;22.014;2022-08-19T00:39:14;98870.64;;;20.93;70.72
65010;BME280;51556;50.002;22.014;2022-08-19T00:41:41;98868.15;;;20.93;70.53
65010;BME280;51556;50.002;22.014;2022-08-19T00:46:38;98865.89;;;20.92;70.41
65010;BME280;51556;50.002;22.014;2022-08-19T00:49:34;98867.83;;;20.90;70.38
65010;BME280;51556;50.002;22.014;2022-08-19T00:52:04;98869.84;;;20.90;70.25
65010;BME280;51556;50.002;22.014;2022-08-19T00:54:32;98870.17;;;20.88;70.23
65010;BME280;51556;50.002;22.014;2022-08-19T00:56:59;98872.16;;;20.85;70.21
65010;BME280;51556;50.002;22.014;2022-08-19T00:59:27;98874.08;;;20.81;70.08
65010;BME280;51556;50.002;22.014;2022-08-19T01:01:53;98878.70;;;20.79;69.95
65010;BME280;51556;50.002;22.014;2022-08-19T01:04:19;98878.34;;;20.77;70.19
65010;BME280;51556;50.002;22.014;2022-08-19T01:06:45;98872.10;;;20.72;70.10
65010;BME280;51556;50.002;22.014;2022-08-19T01:09:10;98870.52;;;20.69;70.12
65010;BME280;51556;50.002;22.014;2022-08-19T01:11:40;98872.05;;;20.65;70.32
65010;BME280;51556;50.002;22.014;2022-08-19T01:14:08;98867.29;;;20.59;70.34
65010;BME280;51556;50.002;22.014;2022-08-19T01:16:34;98865.02;;;20.56;70.37
65010;BME280;51556;50.002;22.014;2022-08-19T01:19:04;98864.77;;;20.53;70.50
65010;BME280;51556;50.002;22.014;2022-08-19T01:21:42;98868.66;;;20.46;70.65
65010;BME280;51556;50.002;22.014;2022-08-19T01:24:11;98871.65;;;20.39;70.88
65010;BME280;51556;50.002;22.014;2022-08-19T01:26:42;98870.07;;;20.36;71.13
65010;BME280;51556;50.002;22.014;2022-08-19T01:29:08;98872.58;;;20.36;71.48
65010;BME280;51556;50.002;22.014;2022-08-19T01:31:34;98875.08;;;20.39;71.56
65010;BME280;51556;50.002;22.014;2022-08-19T01:34:01;98873.33;;;20.41;71.60
65010;BME280;51556;50.002;22.014;2022-08-19T01:39:05;98870.95;;;20.39;71.54
65010;BME280;51556;50.002;22.014;2022-08-19T01:41:31;98872.65;;;20.38;71.55
65010;BME280;51556;50.002;22.014;2022-08-19T01:43:57;98874.69;;;20.37;71.75
65010;BME280;51556;50.002;22.014;2022-08-19T01:46:22;98875.38;;;20.34;71.82
65010;BME280;51556;50.002;22.014;2022-08-19T01:48:48;98877.20;;;20.34;71.69
65010;BME280;51556;50.002;22.014;2022-08-19T01:51:14;98869.20;;;20.33;71.82
65010;BME280;51556;50.002;22.014;2022-08-19T01:53:40;98871.83;;;20.32;71.81
65010;BME280;51556;50.002;22.014;2022-08-19T01:56:08;98869.48;;;20.27;71.76
65010;BME280;51556;50.002;22.014;2022-08-19T01:58:49;98869.09;;;20.25;71.80
65010;BME280;51556;50.002;22.014;2022-08-19T02:01:16;98863.85;;;20.21;71.72
65010;BME280;51556;50.002;22.014;2022-08-19T02:03:42;98864.52;;;20.19;71.63
65010;BME280;51556;50.002;22.014;2022-08-19T02:06:08;98864.63;;;20.15;71.81
65010;BME280;51556;50.002;22.014;2022-08-19T02:08:37;98861.48;;;20.10;71.91
65010;BME280;51556;50.002;22.014;2022-08-19T02:11:04;98860.85;;;20.08;72.08
65010;BME280;51556;50.002;22.014;2022-08-19T02:13:30;98856.36;;;20.06;72.13
65010;BME280;51556;50.002;22.014;2022-08-19T02:15:56;98847.77;;;20.04;72.28
65010;BME280;51556;50.002;22.014;2022-08-19T02:18:21;98850.00;;;20.00;72.57
65010;BME280;51556;50.002;22.014;2022-08-19T02:20:47;98849.66;;;20.02;72.94
65010;BME280;51556;50.002;22.014;2022-08-19T02:23:15;98852.90;;;20.00;73.39
65010;BME280;51556;50.002;22.014;2022-08-19T02:25:42;98854.36;;;19.99;73.53
65010;BME280;51556;50.002;22.014;2022-08-19T02:28:09;98855.97;;;19.99;73.84
65010;BME280;51556;50.002;22.014;2022-08-19T02:30:37;98857.70;;;20.00;74.16
65010;BME280;51556;50.002;22.014;2022-08-19T02:33:04;98855.66;;;20.01;74.33
65010;BME280;51556;50.002;22.014;2022-08-19T02:35:30;98853.99;;;19.99;74.24
65010;BME280;51556;50.002;22.014;2022-08-19T02:37:55;98850.23;;;20.05;74.32
65010;BME280;51556;50.002;22.014;2022-08-19T02:40:40;98854.27;;;20.08;74.30
65010;BME280;51556;50.002;22.014;2022-08-19T02:43:08;98854.77;;;20.11;74.14
65010;BME280;51556;50.002;22.014;2022-08-19T02:45:35;98856.13;;;20.12;74.02
65010;BME280;51556;50.002;22.014;2022-08-19T02:48:01;98857.43;;;20.14;73.96
65010;BME280;51556;50.002;22.014;2022-08-19T02:50:27;98856.74;;;20.13;73.90
65010;BME280;51556;50.002;22.014;2022-08-19T02:52:53;98853.96;;;20.12;73.67
65010;BME280;51556;50.002;22.014;2022-08-19T02:55:18;98852.06;;;20.11;73.52
65010;BME280;51556;50.002;22.014;2022-08-19T02:57:44;98844.08;;;20.10;73.38
65010;BME280;51556;50.002;22.014;2022-08-19T03:00:10;98844.04;;;20.09;73.18
65010;BME280;51556;50.002;22.014;2022-08-19T03:02:39;98848.83;;;20.07;73.26
65010;BME280;51556;50.002;22.014;2022-08-19T03:05:07;98852.02;;;20.07;73.01
65010;BME280;51556;50.002;22.014;2022-08-19T03:07:34;98847.55;;;20.04;73.18
65010;BME280;51556;50.002;22.014;2022-08-19T03:10:01;98845.54;;;20.02;73.00
65010;BME280;51556;50.002;22.014;2022-08-19T03:12:26;98836.80;;;19.97;73.09
65010;BME280;51556;50.002;22.014;2022-08-19T03:14:52;98834.83;;;19.95;73.06
65010;BME280;51556;50.002;22.014;2022-08-19T03:17:18;98837.00;;;19.95;73.20
65010;BME280;51556;50.002;22.014;2022-08-19T03:19:44;98840.58;;;19.92;73.33
65010;BME280;51556;50.002;22.014;2022-08-19T03:22:10;98836.89;;;19.91;73.25
65010;BME280;51556;50.002;22.014;2022-08-19T03:24:35;98838.77;;;19.90;73.13
65010;BME280;51556;50.002;22.014;2022-08-19T03:27:01;98834.34;;;19.89;72.99
65010;BME280;51556;50.002;22.014;2022-08-19T03:29:31;98832.75;;;19.90;73.39
65010;BME280;51556;50.002;22.014;2022-08-19T03:31:58;98830.02;;;19.87;73.80
65010;BME280;51556;50.002;22.014;2022-08-19T03:34:28;98832.85;;;19.83;74.38
65010;BME280;51556;50.002;22.014;2022-08-19T03:36:57;98833.87;;;19.79;74.55
65010;BME280;51556;50.002;22.014;2022-08-19T03:39:24;98833.71;;;19.76;74.66
65010;BME280;51556;50.002;22.014;2022-08-19T03:41:51;98842.01;;;19.77;74.83
65010;BME280;51556;50.002;22.014;2022-08-19T03:44:20;98846.13;;;19.80;75.04
65010;BME280;51556;50.002;22.014;2022-08-19T03:46:52;98849.55;;;19.82;75.06
65010;BME280;51556;50.002;22.014;2022-08-19T03:49:19;98856.60;;;19.83;75.13
65010;BME280;51556;50.002;22.014;2022-08-19T03:51:47;98851.90;;;19.86;75.23
65010;BME280;51556;50.002;22.014;2022-08-19T03:54:14;98859.05;;;19.93;74.89
65010;BME280;51556;50.002;22.014;2022-08-19T03:56:43;98857.61;;;19.98;74.89
65010;BME280;51556;50.002;22.014;2022-08-19T03:59:11;98858.17;;;20.01;74.73
65010;BME280;51556;50.002;22.014;2022-08-19T04:01:38;98857.61;;;20.04;74.33
65010;BME280;51556;50.002;22.014;2022-08-19T04:04:05;98857.47;;;20.06;74.39
65010;BME280;51556;50.002;22.014;2022-08-19T04:06:35;98858.23;;;20.08;74.35
65010;BME280;51556;50.002;22.014;2022-08-19T04:09:03;98856.95;;;20.06;74.21
65010;BME280;51556;50.002;22.014;2022-08-19T04:11:33;98861.85;;;20.07;74.41
65010;BME280;51556;50.002;22.014;2022-08-19T04:13:59;98866.06;;;20.10;74.35
65010;BME280;51556;50.002;22.014;2022-08-19T04:16:26;98867.11;;;20.13;74.30
65010;BME280;51556;50.002;22.014;2022-08-19T04:18:56;98867.52;;;20.17;74.36
65010;BME280;51556;50.002;22.014;2022-08-19T04:21:27;98868.70;;;20.23;74.34
65010;BME280;51556;50.002;22.014;2022-08-19T04:23:54;98873.45;;;20.29;74.16
65010;BME280;51556;50.002;22.014;2022-08-19T04:26:23;98877.60;;;20.36;74.13
65010;BME280;51556;50.002;22.014;2022-08-19T04:28:49;98882.85;;;20.41;74.09
65010;BME280;51556;50.002;22.014;2022-08-19T04:31:25;98890.70;;;20.43;74.19
65010;BME280;51556;50.002;22.014;2022-08-19T04:33:55;98894.80;;;20.45;74.42
65010;BME280;51556;50.002;22.014;2022-08-19T04:36:25;98898.63;;;20.49;74.38
65010;BME280;51556;50.002;22.014;2022-08-19T04:38:54;98892.02;;;20.54;74.56
65010;BME280;51556;50.002;22.014;2022-08-19T04:41:20;98887.63;;;20.60;74.36
65010;BME280;51556;50.002;22.014;2022-08-19T04:44:04;98890.50;;;20.67;74.46
65010;BME280;51556;50.002;22.014;2022-08-19T04:46:29;98894.61;;;20.70;74.20
65010;BME280;51556;50.002;22.014;2022-08-19T04:49:01;98895.48;;;20.75;74.38
65010;BME280;51556;50.002;22.014;2022-08-19T04:51:27;98892.50;;;20.86;74.30
65010;BME280;51556;50.002;22.014;2022-08-19T04:53:57;98888.35;;;20.93;74.20
65010;BME280;51556;50.002;22.014;2022-08-19T04:56:23;98891.44;;;21.00;74.07
65010;BME280;51556;50.002;22.014;2022-08-19T04:58:52;98890.42;;;21.04;74.11
65010;BME280;51556;50.002;22.014;2022-08-19T05:01:21;98890.88;;;21.07;73.96
65010;BME280;51556;50.002;22.014;2022-08-19T05:03:48;98895.59;;;21.11;74.10
65010;BME280;51556;50.002;22.014;2022-08-19T05:06:16;98901.96;;;21.17;74.21
65010;BME280;51556;50.002;22.014;2022-08-19T05:08:43;98908.60;;;21.24;74.23
65010;BME280;51556;50.002;22.014;2022-08-19T05:11:12;98916.09;;;21.29;74.13
65010;BME280;51556;50.002;22.014;2022-08-19T05:13:39;98922.44;;;21.35;74.06
65010;BME280;51556;50.002;22.014;2022-08-19T05:16:05;98922.98;;;21.42;73.97
65010;BME280;51556;50.002;22.014;2022-08-19T05:18:30;98922.20;;;21.50;73.85
65010;BME280;51556;50.002;22.014;2022-08-19T05:21:17;98928.37;;;21.58;73.69
65010;BME280;51556;50.002;22.014;2022-08-19T05:24:03;98924.48;;;21.62;73.57
65010;BME280;51556;50.002;22.014;2022-08-19T05:26:31;98920.02;;;21.66;73.53
65010;BME280;51556;50.002;22.014;2022-08-19T05:28:56;98910.08;;;21.65;73.38
65010;BME280;51556;50.002;22.014;2022-08-19T05:31:22;98906.06;;;21.66;73.25
65010;BME280;51556;50.002;22.014;2022-08-19T05:33:47;98899.66;;;21.63;73.43
65010;BME280;51556;50.002;22.014;2022-08-19T05:36:14;98895.50;;;21.59;73.69
65010;BME280;51556;50.002;22.014;2022-08-19T05:38:40;98895.92;;;21.60;73.77
65010;BME280;51556;50.002;22.014;2022-08-19T05:41:10;98897.52;;;21.69;73.81
65010;BME280;51556;50.002;22.014;2022-08-19T05:43:36;98898.16;;;21.82;73.70
65010;BME280;51556;50.002;22.014;2022-08-19T05:46:06;98894.95;;;21.93;73.45
65010;BME280;51556;50.002;22.014;2022-08-19T05:48:34;98901.02;;;22.03;73.27
65010;BME280;51556;50.002;22.014;2022-08-19T05:51:06;98901.81;;;22.13;72.95
65010;BME280;51556;50.002;22.014;2022-08-19T05:53:34;98891.39;;;22.24;72.78
65010;BME280;51556;50.002;22.014;2022-08-19T05:56:05;98884.96;;;22.33;72.49
65010;BME280;51556;50.002;22.014;2022-08-19T05:58:30;98882.37;;;22.40;72.28
65010;BME280;51556;50.002;22.014;2022-08-19T06:00:57;98878.29;;;22.51;71.90
65010;BME280;51556;50.002;22.014;2022-08-19T06:03:23;98878.67;;;22.59;71.74
65010;BME280;51556;50.002;22.014;2022-08-19T06:05:49;98877.63;;;22.67;71.72
65010;BME280;51556;50.002;22.014;2022-08-19T06:08:14;98876.60;;;22.75;71.47
65010;BME280;51556;50.002;22.014;2022-08-19T06:10:40;98877.80;;;22.85;71.26
65010;BME280;51556;50.002;22.014;2022-08-19T06:13:05;98882.27;;;22.93;70.88
65010;BME280;51556;50.002;22.014;2022-08-19T06:15:31;98887.52;;;22.97;70.47
65010;BME280;51556;50.002;22.014;2022-08-19T06:17:56;98888.36;;;23.04;70.20
65010;BME280;51556;50.002;22.014;2022-08-19T06:20:22;98892.31;;;23.13;69.59
65010;BME280;51556;50.002;22.014;2022-08-19T06:22:48;98894.51;;;23.16;69.20
65010;BME280;51556;50.002;22.014;2022-08-19T06:25:15;98896.09;;;23.23;68.89
65010;BME280;51556;50.002;22.014;2022-08-19T06:27:42;98896.39;;;23.28;68.36
65010;BME280;51556;50.002;22.014;2022-08-19T06:30:09;98896.89;;;23.33;68.17
65010;BME280;51556;50.002;22.014;2022-08-19T06:32:35;98903.15;;;23.40;67.77
65010;BME280;51556;50.002;22.014;2022-08-19T06:35:00;98901.42;;;23.45;67.29
65010;BME280;51556;50.002;22.014;2022-08-19T06:37:26;98896.38;;;23.51;67.10
65010;BME280;51556;50.002;22.014;2022-08-19T06:39:51;98897.65;;;23.62;67.25
65010;BME280;51556;50.002;22.014;2022-08-19T06:42:17;98896.21;;;23.70;66.97
65010;BME280;51556;50.002;22.014;2022-08-19T06:44:46;98896.37;;;23.80;66.70
65010;BME280;51556;50.002;22.014;2022-08-19T06:47:16;98897.00;;;23.91;66.56
65010;BME280;51556;50.002;22.014;2022-08-19T06:49:42;98891.93;;;24.02;65.83
65010;BME280;51556;50.002;22.014;2022-08-19T06:52:08;98894.77;;;24.09;65.87
65010;BME280;51556;50.002;22.014;2022-08-19T06:54:35;98894.52;;;24.20;65.44
65010;BME280;51556;50.002;22.014;2022-08-19T06:57:01;98892.17;;;24.32;65.10
65010;BME280;51556;50.002;22.014;2022-08-19T06:59:28;98889.61;;;24.45;64.77
65010;BME280;51556;50.002;22.014;2022-08-19T07:01:59;98894.52;;;24.54;64.19
65010;BME280;51556;50.002;22.014;2022-08-19T07:04:30;98893.05;;;24.64;64.18
65010;BME280;51556;50.002;22.014;2022-08-19T07:07:05;98893.81;;;24.76;63.73
65010;BME280;51556;50.002;22.014;2022-08-19T07:09:33;98887.91;;;24.87;63.32
65010;BME280;51556;50.002;22.014;2022-08-19T07:11:59;98878.59;;;24.98;63.24
65010;BME280;51556;50.002;22.014;2022-08-19T07:14:27;98876.27;;;25.06;63.00
65010;BME280;51556;50.002;22.014;2022-08-19T07:16:54;98877.49;;;25.16;62.23
65010;BME280;51556;50.002;22.014;2022-08-19T07:19:21;98878.77;;;25.27;62.24
65010;BME280;51556;50.002;22.014;2022-08-19T07:21:49;98877.52;;;25.35;61.51
65010;BME280;51556;50.002;22.014;2022-08-19T07:24:20;98882.08;;;25.44;61.30
65010;BME280;51556;50.002;22.014;2022-08-19T07:26:50;98884.48;;;25.54;60.99
65010;BME280;51556;50.002;22.014;2022-08-19T07:29:16;98890.71;;;25.67;60.91
65010;BME280;51556;50.002;22.014;2022-08-19T07:31:43;98895.15;;;25.75;60.35
65010;BME280;51556;50.002;22.014;2022-08-19T07:34:11;98896.05;;;25.83;59.69
65010;BME280;51556;50.002;22.014;2022-08-19T07:36:39;98900.07;;;25.93;59.99
65010;BME280;51556;50.002;22.014;2022-08-19T07:39:12;98892.20;;;26.06;59.27
65010;BME280;51556;50.002;22.014;2022-08-19T07:41:39;98888.09;;;26.14;59.06
65010;BME280;51556;50.002;22.014;2022-08-19T07:44:06;98894.21;;;26.24;58.58
65010;BME280;51556;50.002;22.014;2022-08-19T07:46:35;98897.84;;;26.35;58.32
65010;BME280;51556;50.002;22.014;2022-08-19T07:49:04;98900.91;;;26.42;57.20
65010;BME280;51556;50.002;22.014;2022-08-19T07:51:29;98901.08;;;26.48;57.22
65010;BME280;51556;50.002;22.014;2022-08-19T07:53:55;98905.86;;;26.54;56.51
65010;BME280;51556;50.002;22.014;2022-08-19T07:56:21;98911.06;;;26.62;56.38
65010;BME280;51556;50.002;22.014;2022-08-19T07:58:49;98913.64;;;26.70;55.77
65010;BME280;51556;50.002;22.014;2022-08-19T08:01:25;98909.37;;;26.79;56.06
65010;BME280;51556;50.002;22.014;2022-08-19T08:03:52;98910.44;;;26.89;55.80
65010;BME280;51556;50.002;22.014;2022-08-19T08:06:37;98915.61;;;27.03;55.45
65010;BME280;51556;50.002;22.014;2022-08-19T08:09:28;98912.05;;;27.15;54.74
65010;BME280;51556;50.002;22.014;2022-08-19T08:12:00;98914.48;;;27.24;54.96
65010;BME280;51556;50.002;22.014;2022-08-19T08:14:29;98917.10;;;27.33;54.26
65010;BME280;51556;50.002;22.014;2022-08-19T08:16:56;98918.84;;;27.37;53.23
65010;BME280;51556;50.002;22.014;2022-08-19T08:19:24;98918.45;;;27.39;52.78
65010;BME280;51556;50.002;22.014;2022-08-19T08:21:50;98918.42;;;27.43;53.49
65010;BME280;51556;50.002;22.014;2022-08-19T08:24:17;98929.90;;;27.53;53.56
65010;BME280;51556;50.002;22.014;2022-08-19T08:26:43;98936.08;;;27.61;53.54
65010;BME280;51556;50.002;22.014;2022-08-19T08:29:13;98936.67;;;27.71;53.11
65010;BME280;51556;50.002;22.014;2022-08-19T08:31:41;98933.67;;;27.79;53.22
65010;BME280;51556;50.002;22.014;2022-08-19T08:34:08;98937.34;;;27.86;52.99
65010;BME280;51556;50.002;22.014;2022-08-19T08:36:42;98933.08;;;27.93;53.39
65010;BME280;51556;50.002;22.014;2022-08-19T08:39:20;98931.01;;;28.07;53.38
65010;BME280;51556;50.002;22.014;2022-08-19T08:41:56;98937.41;;;28.16;52.78
65010;BME280;51556;50.002;22.014;2022-08-19T08:44:32;98930.69;;;28.25;52.47
65010;BME280;51556;50.002;22.014;2022-08-19T08:47:04;98929.98;;;28.32;51.27
65010;BME280;51556;50.002;22.014;2022-08-19T08:49:43;98928.97;;;28.38;50.77
65010;BME280;51556;50.002;22.014;2022-08-19T08:52:25;98932.09;;;28.44;49.87
65010;BME280;51556;50.002;22.014;2022-08-19T08:54:54;98935.62;;;28.50;49.54
65010;BME280;51556;50.002;22.014;2022-08-19T09:00:00;98936.94;;;28.65;49.97
65010;BME280;51556;50.002;22.014;2022-08-19T09:02:29;98935.48;;;28.75;50.25
65010;BME280;51556;50.002;22.014;2022-08-19T09:04:55;98940.45;;;28.83;49.94
65010;BME280;51556;50.002;22.014;2022-08-19T09:08:22;98940.78;;;28.90;49.78
65010;BME280;51556;50.002;22.014;2022-08-19T09:10:38;98945.75;;;28.98;49.92
65010;BME280;51556;50.002;22.014;2022-08-19T09:14:06;98947.98;;;29.09;50.07
65010;BME280;51556;50.002;22.014;2022-08-19T09:16:16;98941.11;;;29.20;49.65
65010;BME280;51556;50.002;22.014;2022-08-19T09:18:47;98938.23;;;29.28;49.55
65010;BME280;51556;50.002;22.014;2022-08-19T09:21:15;98938.21;;;29.37;48.47
65010;BME280;51556;50.002;22.014;2022-08-19T09:23:41;98943.36;;;29.44;48.45
65010;BME280;51556;50.002;22.014;2022-08-19T09:26:14;98947.33;;;29.51;48.50
65010;BME280;51556;50.002;22.014;2022-08-19T09:28:42;98937.02;;;29.59;48.44
65010;BME280;51556;50.002;22.014;2022-08-19T09:31:14;98937.81;;;29.68;47.42
65010;BME280;51556;50.002;22.014;2022-08-19T09:33:40;98935.73;;;29.77;47.19
65010;BME280;51556;50.002;22.014;2022-08-19T09:36:12;98937.98;;;29.86;46.87
65010;BME280;51556;50.002;22.014;2022-08-19T09:38:39;98937.70;;;29.93;46.55
65010;BME280;51556;50.002;22.014;2022-08-19T09:41:14;98935.30;;;30.02;45.91
65010;BME280;51556;50.002;22.014;2022-08-19T09:43:41;98934.15;;;30.10;45.91
65010;BME280;51556;50.002;22.014;2022-08-19T09:46:08;98933.52;;;30.14;45.38
65010;BME280;51556;50.002;22.014;2022-08-19T09:48:39;98926.07;;;30.17;45.77
65010;BME280;51556;50.002;22.014;2022-08-19T09:51:10;98923.63;;;30.28;46.08
65010;BME280;51556;50.002;22.014;2022-08-19T09:53:38;98923.59;;;30.41;46.08
65010;BME280;51556;50.002;22.014;2022-08-19T09:56:05;98924.33;;;30.53;46.08
65010;BME280;51556;50.002;22.014;2022-08-19T09:58:34;98928.31;;;30.66;45.61
65010;BME280;51556;50.002;22.014;2022-08-19T10:01:01;98929.73;;;30.77;45.18
65010;BME280;51556;50.002;22.014;2022-08-19T10:03:28;98928.44;;;30.85;44.97
65010;BME280;51556;50.002;22.014;2022-08-19T10:05:55;98925.92;;;30.92;44.87
65010;BME280;51556;50.002;22.014;2022-08-19T10:08:24;98928.18;;;31.03;44.54
65010;BME280;51556;50.002;22.014;2022-08-19T10:10:52;98924.77;;;31.12;44.67
65010;BME280;51556;50.002;22.014;2022-08-19T10:13:19;98924.21;;;31.24;45.03
65010;BME280;51556;50.002;22.014;2022-08-19T10:15:48;98920.60;;;31.39;45.36
65010;BME280;51556;50.002;22.014;2022-08-19T10:18:17;98923.89;;;31.50;43.32
65010;BME280;51556;50.002;22.014;2022-08-19T10:20:44;98918.67;;;31.60;43.04
65010;BME280;51556;50.002;22.014;2022-08-19T10:23:11;98922.52;;;31.73;43.26
65010;BME280;51556;50.002;22.014;2022-08-19T10:25:38;98910.48;;;31.87;43.33
65010;BME280;51556;50.002;22.014;2022-08-19T10:28:04;98905.68;;;32.01;42.77
65010;BME280;51556;50.002;22.014;2022-08-19T10:30:33;98905.57;;;32.15;42.22
65010;BME280;51556;50.002;22.014;2022-08-19T10:32:59;98903.64;;;32.27;42.20
65010;BME280;51556;50.002;22.014;2022-08-19T10:35:24;98899.56;;;32.34;41.51
65010;BME280;51556;50.002;22.014;2022-08-19T10:38:05;98896.51;;;32.44;42.54
65010;BME280;51556;50.002;22.014;2022-08-19T10:40:31;98898.64;;;32.55;42.31
65010;BME280;51556;50.002;22.014;2022-08-19T10:42:56;98901.39;;;32.63;41.86
65010;BME280;51556;50.002;22.014;2022-08-19T10:45:23;98903.23;;;32.67;40.66
65010;BME280;51556;50.002;22.014;2022-08-19T10:47:50;98898.35;;;32.73;41.79
65010;BME280;51556;50.002;22.014;2022-08-19T10:50:16;98900.12;;;32.89;41.95
65010;BME280;51556;50.002;22.014;2022-08-19T10:53:04;98902.58;;;33.06;41.18
65010;BME280;51556;50.002;22.014;2022-08-19T10:55:31;98903.23;;;33.23;40.44
65010;BME280;51556;50.002;22.014;2022-08-19T10:58:18;98900.55;;;33.34;40.51
65010;BME280;51556;50.002;22.014;2022-08-19T11:00:57;98904.02;;;33.45;40.24
65010;BME280;51556;50.002;22.014;2022-08-19T11:03:24;98904.61;;;33.59;39.54
65010;BME280;51556;50.002;22.014;2022-08-19T11:06:00;98905.11;;;33.73;39.49
65010;BME280;51556;50.002;22.014;2022-08-19T11:08:26;98896.65;;;33.87;38.82
65010;BME280;51556;50.002;22.014;2022-08-19T11:10:53;98894.98;;;34.01;38.64
65010;BME280;51556;50.002;22.014;2022-08-19T11:13:22;98894.02;;;34.11;37.99
65010;BME280;51556;50.002;22.014;2022-08-19T11:15:57;98891.21;;;34.18;37.66
65010;BME280;51556;50.002;22.014;2022-08-19T11:18:22;98887.41;;;34.19;37.12
65010;BME280;51556;50.002;22.014;2022-08-19T11:20:48;98893.47;;;34.23;37.29
65010;BME280;51556;50.002;22.014;2022-08-19T11:23:14;98889.98;;;34.34;37.01
65010;BME280;51556;50.002;22.014;2022-08-19T11:25:39;98888.98;;;34.41;37.34
65010;BME280;51556;50.002;22.014;2022-08-19T11:28:05;98885.92;;;34.46;36.52
65010;BME280;51556;50.002;22.014;2022-08-19T11:30:30;98883.13;;;34.53;36.66
65010;BME280;51556;50.002;22.014;2022-08-19T11:32:57;98882.02;;;34.62;35.89
65010;BME280;51556;50.002;22.014;2022-08-19T11:35:22;98879.36;;;34.72;35.91
65010;BME280;51556;50.002;22.014;2022-08-19T11:37:48;98877.89;;;34.80;35.07
65010;BME280;51556;50.002;22.014;2022-08-19T11:40:14;98870.42;;;34.91;35.76
65010;BME280;51556;50.002;22.014;2022-08-19T11:42:39;98870.41;;;35.04;34.85
65010;BME280;51556;50.002;22.014;2022-08-19T11:45:21;98866.98;;;35.13;34.04
65010;BME280;51556;50.002;22.014;2022-08-19T11:47:46;98870.88;;;35.18;33.15
65010;BME280;51556;50.002;22.014;2022-08-19T11:50:13;98870.13;;;35.26;33.53
65010;BME280;51556;50.002;22.014;2022-08-19T11:52:39;98865.27;;;35.25;33.33
65010;BME280;51556;50.002;22.014;2022-08-19T11:55:06;98865.95;;;35.29;33.64
65010;BME280;51556;50.002;22.014;2022-08-19T11:57:31;98860.81;;;35.34;33.56
65010;BME280;51556;50.002;22.014;2022-08-19T11:59:57;98858.52;;;35.37;33.18
65010;BME280;51556;50.002;22.014;2022-08-19T12:02:23;98855.50;;;35.40;32.91
65010;BME280;51556;50.002;22.014;2022-08-19T12:04:49;98852.98;;;35.46;32.40
65010;BME280;51556;50.002;22.014;2022-08-19T12:07:15;98848.71;;;35.47;32.11
65010;BME280;51556;50.002;22.014;2022-08-19T12:09:40;98846.39;;;35.56;32.12
65010;BME280;51556;50.002;22.014;2022-08-19T12:12:06;98844.21;;;35.67;31.97
65010;BME280;51556;50.002;22.014;2022-08-19T12:14:32;98841.00;;;35.75;32.14
65010;BME280;51556;50.002;22.014;2022-08-19T12:16:58;98837.38;;;35.88;31.76
65010;BME280;51556;50.002;22.014;2022-08-19T12:19:23;98835.46;;;35.99;31.20
65010;BME280;51556;50.002;22.014;2022-08-19T12:21:51;98835.58;;;36.09;30.97
65010;BME280;51556;50.002;22.014;2022-08-19T12:24:22;98834.02;;;36.15;30.71
65010;BME280;51556;50.002;22.014;2022-08-19T12:26:50;98838.09;;;36.23;30.81
65010;BME280;51556;50.002;22.014;2022-08-19T12:29:16;98835.79;;;36.30;30.97
65010;BME280;51556;50.002;22.014;2022-08-19T12:31:42;98835.14;;;36.39;31.49
65010;BME280;51556;50.002;22.014;2022-08-19T12:34:07;98828.86;;;36.50;30.85
65010;BME280;51556;50.002;22.014;2022-08-19T12:36:33;98828.30;;;36.57;30.55
65010;BME280;51556;50.002;22.014;2022-08-19T12:38:59;98818.17;;;36.62;30.68
65010;BME280;51556;50.002;22.014;2022-08-19T12:41:25;98814.99;;;36.63;30.59
65010;BME280;51556;50.002;22.014;2022-08-19T12:43:51;98821.05;;;36.63;31.15
65010;BME280;51556;50.002;22.014;2022-08-19T12:46:18;98818.23;;;36.67;30.91
65010;BME280;51556;50.002;22.014;2022-08-19T12:48:44;98821.72;;;36.63;30.77
65010;BME280;51556;50.002;22.014;2022-08-19T12:51:14;98821.82;;;36.70;31.53
65010;BME280;51556;50.002;22.014;2022-08-19T12:53:40;98819.36;;;36.79;30.91
65010;BME280;51556;50.002;22.014;2022-08-19T12:56:10;98818.58;;;36.82;31.01
65010;BME280;51556;50.002;22.014;2022-08-19T12:58:37;98819.23;;;36.87;31.29
65010;BME280;51556;50.002;22.014;2022-08-19T13:01:13;98823.09;;;36.94;30.89
65010;BME280;51556;50.002;22.014;2022-08-19T13:03:40;98818.51;;;36.88;29.54
65010;BME280;51556;50.002;22.014;2022-08-19T13:06:06;98817.70;;;36.81;30.42